Dark Hollow, Indiana
Current Conditions -  °F | °C
As of 10:53 AM on Monday 26 Jan 2015 (Local Time) from KBMG Reporting Station
Overcast Overcast  
Wind Chill: 18°   Ceiling: 1500
Heat Index: 26°   Visibility: 10mi
Dew Point: 20°   Wind: 7mph
Humidity: 78%   Direction: 320°NW
Pressure: 29.96"   Gusts: NA
Location:  38.8737°N, 86.4563°W
Report Text: KBMG 261553Z 32006KT 10SM OVC015 M03/M07 A2996 RMK AO2 SLP155 T10331067
Loading
Personal Weather Stations






























Interactive Weather Map New forecast layout! Learn more

10-Day Weather Forecast

Advertisements
Track Severe Weather on mobile